sensor_id;sensor_type;location;lat;lon;timestamp;temperature;humidity
61253;DHT22;47127;47.516;8.596;2024-01-15T00:01:54;2.20;99.90
61253;DHT22;47127;47.516;8.596;2024-01-15T00:04:20;2.30;99.90
61253;DHT22;47127;47.516;8.596;2024-01-15T00:06:45;2.20;99.90
61253;DHT22;47127;47.516;8.596;2024-01-15T00:09:11;2.20;99.90
61253;DHT22;47127;47.516;8.596;2024-01-15T00:11:36;2.20;99.90
61253;DHT22;47127;47.516;8.596;2024-01-15T00:14:02;2.20;99.90
61253;DHT22;47127;47.516;8.596;2024-01-15T00:16:28;2.30;99.90
61253;DHT22;47127;47.516;8.596;2024-01-15T00:18:54;2.30;99.90
61253;DHT22;47127;47.516;8.596;2024-01-15T00:21:20;2.30;99.90
61253;DHT22;47127;47.516;8.596;2024-01-15T00:23:45;2.40;99.90
61253;DHT22;47127;47.516;8.596;2024-01-15T00:26:11;2.40;99.90
61253;DHT22;47127;47.516;8.596;2024-01-15T00:28:37;2.40;99.90
61253;DHT22;47127;47.516;8.596;2024-01-15T00:31:06;2.40;99.90
61253;DHT22;47127;47.516;8.596;2024-01-15T00:33:32;2.50;99.90
61253;DHT22;47127;47.516;8.596;2024-01-15T00:35:57;2.60;99.90
61253;DHT22;47127;47.516;8.596;2024-01-15T00:38:23;2.60;99.90
61253;DHT22;47127;47.516;8.596;2024-01-15T00:40:49;2.40;99.90
61253;DHT22;47127;47.516;8.596;2024-01-15T00:43:14;2.30;99.90
61253;DHT22;47127;47.516;8.596;2024-01-15T00:45:40;2.20;99.90
61253;DHT22;47127;47.516;8.596;2024-01-15T00:48:07;2.20;99.90
61253;DHT22;47127;47.516;8.596;2024-01-15T00:50:32;2.30;99.90
61253;DHT22;47127;47.516;8.596;2024-01-15T00:52:58;2.40;99.90
61253;DHT22;47127;47.516;8.596;2024-01-15T00:55:24;2.30;99.90
61253;DHT22;47127;47.516;8.596;2024-01-15T00:57:51;2.30;99.90
61253;DHT22;47127;47.516;8.596;2024-01-15T01:00:16;2.20;99.90
61253;DHT22;47127;47.516;8.596;2024-01-15T01:02:42;2.30;99.90
61253;DHT22;47127;47.516;8.596;2024-01-15T01:05:07;2.20;99.90
61253;DHT22;47127;47.516;8.596;2024-01-15T01:07:33;2.20;99.90
61253;DHT22;47127;47.516;8.596;2024-01-15T01:09:59;2.20;99.90
61253;DHT22;47127;47.516;8.596;2024-01-15T01:12:24;2.10;99.90
61253;DHT22;47127;47.516;8.596;2024-01-15T01:14:50;2.20;99.90
61253;DHT22;47127;47.516;8.596;2024-01-15T01:17:15;2.10;99.90
61253;DHT22;47127;47.516;8.596;2024-01-15T01:19:41;2.00;99.90
61253;DHT22;47127;47.516;8.596;2024-01-15T01:22:06;2.00;99.90
61253;DHT22;47127;47.516;8.596;2024-01-15T01:24:32;1.90;99.90
61253;DHT22;47127;47.516;8.596;2024-01-15T01:26:58;1.90;99.90
61253;DHT22;47127;47.516;8.596;2024-01-15T01:29:24;2.00;99.90
61253;DHT22;47127;47.516;8.596;2024-01-15T01:31:49;1.90;99.90
61253;DHT22;47127;47.516;8.596;2024-01-15T01:34:18;1.80;99.90
61253;DHT22;47127;47.516;8.596;2024-01-15T01:36:44;1.80;99.90
61253;DHT22;47127;47.516;8.596;2024-01-15T01:39:09;1.70;99.90
61253;DHT22;47127;47.516;8.596;2024-01-15T01:41:36;1.80;99.90
61253;DHT22;47127;47.516;8.596;2024-01-15T01:44:01;1.80;99.90
61253;DHT22;47127;47.516;8.596;2024-01-15T01:46:27;1.70;99.90
61253;DHT22;47127;47.516;8.596;2024-01-15T01:48:58;1.50;99.90
61253;DHT22;47127;47.516;8.596;2024-01-15T01:51:26;1.50;99.90
61253;DHT22;47127;47.516;8.596;2024-01-15T01:53:52;1.50;99.90
61253;DHT22;47127;47.516;8.596;2024-01-15T01:56:18;1.50;99.90
61253;DHT22;47127;47.516;8.596;2024-01-15T01:58:44;1.50;99.90
61253;DHT22;47127;47.516;8.596;2024-01-15T02:01:14;1.60;99.90
61253;DHT22;47127;47.516;8.596;2024-01-15T02:03:40;1.50;99.90
61253;DHT22;47127;47.516;8.596;2024-01-15T02:06:06;1.30;99.90
61253;DHT22;47127;47.516;8.596;2024-01-15T02:08:34;1.40;99.90
61253;DHT22;47127;47.516;8.596;2024-01-15T02:11:00;1.40;99.90
61253;DHT22;47127;47.516;8.596;2024-01-15T02:13:25;1.40;99.90
61253;DHT22;47127;47.516;8.596;2024-01-15T02:15:51;1.40;99.90
61253;DHT22;47127;47.516;8.596;2024-01-15T02:18:17;1.50;99.90
61253;DHT22;47127;47.516;8.596;2024-01-15T02:20:42;1.50;99.90
61253;DHT22;47127;47.516;8.596;2024-01-15T02:23:13;1.50;99.90
61253;DHT22;47127;47.516;8.596;2024-01-15T02:25:44;1.50;99.90
61253;DHT22;47127;47.516;8.596;2024-01-15T02:28:14;1.40;99.90
61253;DHT22;47127;47.516;8.596;2024-01-15T02:30:42;1.40;99.90
61253;DHT22;47127;47.516;8.596;2024-01-15T02:33:08;1.30;99.90
61253;DHT22;47127;47.516;8.596;2024-01-15T02:35:35;1.40;99.90
61253;DHT22;47127;47.516;8.596;2024-01-15T02:38:02;1.10;99.90
61253;DHT22;47127;47.516;8.596;2024-01-15T02:40:28;1.10;99.90
61253;DHT22;47127;47.516;8.596;2024-01-15T02:42:54;1.20;99.90
61253;DHT22;47127;47.516;8.596;2024-01-15T02:45:20;1.20;99.90
61253;DHT22;47127;47.516;8.596;2024-01-15T02:47:46;1.30;99.90
61253;DHT22;47127;47.516;8.596;2024-01-15T02:50:11;1.40;99.90
61253;DHT22;47127;47.516;8.596;2024-01-15T02:52:37;1.40;99.90
61253;DHT22;47127;47.516;8.596;2024-01-15T02:55:03;1.40;99.90
61253;DHT22;47127;47.516;8.596;2024-01-15T02:57:29;1.20;99.90
61253;DHT22;47127;47.516;8.596;2024-01-15T02:59:54;1.30;99.90
61253;DHT22;47127;47.516;8.596;2024-01-15T03:02:20;1.20;99.90
61253;DHT22;47127;47.516;8.596;2024-01-15T03:04:46;1.20;99.90
61253;DHT22;47127;47.516;8.596;2024-01-15T03:07:12;1.20;99.90
61253;DHT22;47127;47.516;8.596;2024-01-15T03:09:37;1.10;99.90
61253;DHT22;47127;47.516;8.596;2024-01-15T03:12:04;1.20;99.90
61253;DHT22;47127;47.516;8.596;2024-01-15T03:14:29;1.20;99.90
61253;DHT22;47127;47.516;8.596;2024-01-15T03:16:55;1.10;99.90
61253;DHT22;47127;47.516;8.596;2024-01-15T03:19:21;1.10;99.90
61253;DHT22;47127;47.516;8.596;2024-01-15T03:21:46;1.00;99.90
61253;DHT22;47127;47.516;8.596;2024-01-15T03:24:12;1.00;99.90
61253;DHT22;47127;47.516;8.596;2024-01-15T03:26:37;1.00;99.90
61253;DHT22;47127;47.516;8.596;2024-01-15T03:29:04;1.10;99.90
61253;DHT22;47127;47.516;8.596;2024-01-15T03:31:30;1.10;99.90
61253;DHT22;47127;47.516;8.596;2024-01-15T03:33:56;1.00;99.90
61253;DHT22;47127;47.516;8.596;2024-01-15T03:36:21;1.00;99.90
61253;DHT22;47127;47.516;8.596;2024-01-15T03:38:47;1.00;99.90
61253;DHT22;47127;47.516;8.596;2024-01-15T03:41:13;1.00;99.90
61253;DHT22;47127;47.516;8.596;2024-01-15T03:43:38;1.00;99.90
61253;DHT22;47127;47.516;8.596;2024-01-15T03:46:04;1.00;99.90
61253;DHT22;47127;47.516;8.596;2024-01-15T03:48:30;1.10;99.90
61253;DHT22;47127;47.516;8.596;2024-01-15T03:50:56;1.10;99.90
61253;DHT22;47127;47.516;8.596;2024-01-15T03:53:21;1.30;99.90
61253;DHT22;47127;47.516;8.596;2024-01-15T03:55:47;1.30;99.90
61253;DHT22;47127;47.516;8.596;2024-01-15T03:58:12;1.40;99.90
61253;DHT22;47127;47.516;8.596;2024-01-15T04:00:40;1.30;99.90
61253;DHT22;47127;47.516;8.596;2024-01-15T04:03:06;1.20;99.90
61253;DHT22;47127;47.516;8.596;2024-01-15T04:05:31;1.30;99.90
61253;DHT22;47127;47.516;8.596;2024-01-15T04:07:57;1.30;99.90
61253;DHT22;47127;47.516;8.596;2024-01-15T04:10:23;1.30;99.90
61253;DHT22;47127;47.516;8.596;2024-01-15T04:12:48;1.20;99.90
61253;DHT22;47127;47.516;8.596;2024-01-15T04:15:14;1.30;99.90
61253;DHT22;47127;47.516;8.596;2024-01-15T04:17:39;1.30;99.90
61253;DHT22;47127;47.516;8.596;2024-01-15T04:20:05;1.30;99.90
61253;DHT22;47127;47.516;8.596;2024-01-15T04:22:32;1.40;99.90
61253;DHT22;47127;47.516;8.596;2024-01-15T04:24:58;1.40;99.90
61253;DHT22;47127;47.516;8.596;2024-01-15T04:27:24;1.50;99.90
61253;DHT22;47127;47.516;8.596;2024-01-15T04:29:49;1.40;99.90
61253;DHT22;47127;47.516;8.596;2024-01-15T04:32:15;1.40;99.90
61253;DHT22;47127;47.516;8.596;2024-01-15T04:34:41;1.40;99.90
61253;DHT22;47127;47.516;8.596;2024-01-15T04:37:06;1.50;99.90
61253;DHT22;47127;47.516;8.596;2024-01-15T04:39:32;1.50;99.90
61253;DHT22;47127;47.516;8.596;2024-01-15T04:41:57;1.40;99.90
61253;DHT22;47127;47.516;8.596;2024-01-15T04:44:23;1.40;99.90
61253;DHT22;47127;47.516;8.596;2024-01-15T04:46:48;1.40;99.90
61253;DHT22;47127;47.516;8.596;2024-01-15T04:49:14;1.30;99.90
61253;DHT22;47127;47.516;8.596;2024-01-15T04:51:39;1.30;99.90
61253;DHT22;47127;47.516;8.596;2024-01-15T04:54:05;1.40;99.90
61253;DHT22;47127;47.516;8.596;2024-01-15T04:56:31;1.10;99.90
61253;DHT22;47127;47.516;8.596;2024-01-15T04:58:56;1.20;99.90
61253;DHT22;47127;47.516;8.596;2024-01-15T05:01:22;0.40;99.90
61253;DHT22;47127;47.516;8.596;2024-01-15T05:03:47;1.20;99.90
61253;DHT22;47127;47.516;8.596;2024-01-15T05:06:14;1.20;99.90
61253;DHT22;47127;47.516;8.596;2024-01-15T05:08:40;1.30;99.90
61253;DHT22;47127;47.516;8.596;2024-01-15T05:11:05;1.30;99.90
61253;DHT22;47127;47.516;8.596;2024-01-15T05:13:31;1.40;99.90
61253;DHT22;47127;47.516;8.596;2024-01-15T05:15:57;1.40;99.90
61253;DHT22;47127;47.516;8.596;2024-01-15T05:18:22;1.30;99.90
61253;DHT22;47127;47.516;8.596;2024-01-15T05:20:48;1.20;99.90
61253;DHT22;47127;47.516;8.596;2024-01-15T05:23:13;1.30;99.90
61253;DHT22;47127;47.516;8.596;2024-01-15T05:25:39;1.40;99.90
61253;DHT22;47127;47.516;8.596;2024-01-15T05:28:05;1.40;99.90
61253;DHT22;47127;47.516;8.596;2024-01-15T05:30:31;0.60;99.90
61253;DHT22;47127;47.516;8.596;2024-01-15T05:32:57;1.40;99.90
61253;DHT22;47127;47.516;8.596;2024-01-15T05:35:23;1.40;99.90
61253;DHT22;47127;47.516;8.596;2024-01-15T05:37:48;1.50;99.90
61253;DHT22;47127;47.516;8.596;2024-01-15T05:40:14;1.40;99.90
61253;DHT22;47127;47.516;8.596;2024-01-15T05:42:41;1.40;99.90
61253;DHT22;47127;47.516;8.596;2024-01-15T05:45:07;1.50;99.90
61253;DHT22;47127;47.516;8.596;2024-01-15T05:47:33;1.60;99.90
61253;DHT22;47127;47.516;8.596;2024-01-15T05:50:01;1.60;99.90
61253;DHT22;47127;47.516;8.596;2024-01-15T05:52:27;1.60;99.90
61253;DHT22;47127;47.516;8.596;2024-01-15T05:54:52;1.60;99.90
61253;DHT22;47127;47.516;8.596;2024-01-15T05:57:18;1.50;99.90
61253;DHT22;47127;47.516;8.596;2024-01-15T05:59:44;1.50;99.90
61253;DHT22;47127;47.516;8.596;2024-01-15T06:02:13;1.50;99.90
61253;DHT22;47127;47.516;8.596;2024-01-15T06:04:38;1.60;99.90
61253;DHT22;47127;47.516;8.596;2024-01-15T06:07:04;1.50;99.90
61253;DHT22;47127;47.516;8.596;2024-01-15T06:09:31;1.60;99.90
61253;DHT22;47127;47.516;8.596;2024-01-15T06:11:57;1.60;99.90
61253;DHT22;47127;47.516;8.596;2024-01-15T06:14:22;1.50;99.90
61253;DHT22;47127;47.516;8.596;2024-01-15T06:16:48;1.40;99.90
61253;DHT22;47127;47.516;8.596;2024-01-15T06:19:14;1.40;99.90
61253;DHT22;47127;47.516;8.596;2024-01-15T06:21:40;1.50;99.90
61253;DHT22;47127;47.516;8.596;2024-01-15T06:24:06;0.80;99.90
61253;DHT22;47127;47.516;8.596;2024-01-15T06:26:31;1.50;99.90
61253;DHT22;47127;47.516;8.596;2024-01-15T06:28:57;1.60;99.90
61253;DHT22;47127;47.516;8.596;2024-01-15T06:31:23;1.60;99.90
61253;DHT22;47127;47.516;8.596;2024-01-15T06:33:48;1.60;99.90
61253;DHT22;47127;47.516;8.596;2024-01-15T06:36:14;1.60;99.90
61253;DHT22;47127;47.516;8.596;2024-01-15T06:38:42;1.60;99.90
61253;DHT22;47127;47.516;8.596;2024-01-15T06:41:08;1.50;99.90
61253;DHT22;47127;47.516;8.596;2024-01-15T06:43:34;1.50;99.90
61253;DHT22;47127;47.516;8.596;2024-01-15T06:45:59;1.50;99.90
61253;DHT22;47127;47.516;8.596;2024-01-15T06:48:25;1.50;99.90
61253;DHT22;47127;47.516;8.596;2024-01-15T06:50:50;1.50;99.90
61253;DHT22;47127;47.516;8.596;2024-01-15T06:53:16;1.50;99.90
61253;DHT22;47127;47.516;8.596;2024-01-15T06:55:42;1.50;99.90
61253;DHT22;47127;47.516;8.596;2024-01-15T06:58:07;1.40;99.90
61253;DHT22;47127;47.516;8.596;2024-01-15T07:00:34;1.40;99.90
61253;DHT22;47127;47.516;8.596;2024-01-15T07:03:00;1.50;99.90
61253;DHT22;47127;47.516;8.596;2024-01-15T07:05:25;1.50;99.90
61253;DHT22;47127;47.516;8.596;2024-01-15T07:07:51;1.40;99.90
61253;DHT22;47127;47.516;8.596;2024-01-15T07:10:17;1.40;99.90
61253;DHT22;47127;47.516;8.596;2024-01-15T07:12:43;1.30;99.90
61253;DHT22;47127;47.516;8.596;2024-01-15T07:15:09;1.40;99.90
61253;DHT22;47127;47.516;8.596;2024-01-15T07:17:35;1.30;99.90
61253;DHT22;47127;47.516;8.596;2024-01-15T07:20:01;1.40;99.90
61253;DHT22;47127;47.516;8.596;2024-01-15T07:22:27;1.50;99.90
61253;DHT22;47127;47.516;8.596;2024-01-15T07:24:53;1.50;99.90
61253;DHT22;47127;47.516;8.596;2024-01-15T07:27:18;1.40;99.90
61253;DHT22;47127;47.516;8.596;2024-01-15T07:29:44;1.50;99.90
61253;DHT22;47127;47.516;8.596;2024-01-15T07:32:10;1.50;99.90
61253;DHT22;47127;47.516;8.596;2024-01-15T07:34:35;1.40;99.90
61253;DHT22;47127;47.516;8.596;2024-01-15T07:37:01;1.40;99.90
61253;DHT22;47127;47.516;8.596;2024-01-15T07:39:26;1.40;99.90
61253;DHT22;47127;47.516;8.596;2024-01-15T07:42:00;1.30;99.90
61253;DHT22;47127;47.516;8.596;2024-01-15T07:44:26;1.30;99.90
61253;DHT22;47127;47.516;8.596;2024-01-15T07:46:52;1.30;99.90
61253;DHT22;47127;47.516;8.596;2024-01-15T07:49:19;1.20;99.90
61253;DHT22;47127;47.516;8.596;2024-01-15T07:51:44;1.30;99.90
61253;DHT22;47127;47.516;8.596;2024-01-15T07:54:10;1.40;99.90
61253;DHT22;47127;47.516;8.596;2024-01-15T07:56:56;1.40;99.90
61253;DHT22;47127;47.516;8.596;2024-01-15T07:59:26;1.40;99.90
61253;DHT22;47127;47.516;8.596;2024-01-15T08:01:52;1.40;99.90
61253;DHT22;47127;47.516;8.596;2024-01-15T08:04:17;1.40;99.90
61253;DHT22;47127;47.516;8.596;2024-01-15T08:06:44;1.50;99.90
61253;DHT22;47127;47.516;8.596;2024-01-15T08:09:10;1.50;99.90
61253;DHT22;47127;47.516;8.596;2024-01-15T08:11:39;1.60;99.90
61253;DHT22;47127;47.516;8.596;2024-01-15T08:14:06;1.50;99.90
61253;DHT22;47127;47.516;8.596;2024-01-15T08:16:31;1.60;99.90
61253;DHT22;47127;47.516;8.596;2024-01-15T08:18:57;1.50;99.90
61253;DHT22;47127;47.516;8.596;2024-01-15T08:21:22;1.60;99.90
61253;DHT22;47127;47.516;8.596;2024-01-15T08:23:48;1.70;99.90
61253;DHT22;47127;47.516;8.596;2024-01-15T08:26:14;1.50;99.90
61253;DHT22;47127;47.516;8.596;2024-01-15T08:28:39;1.60;99.90
61253;DHT22;47127;47.516;8.596;2024-01-15T08:31:05;1.40;99.90
61253;DHT22;47127;47.516;8.596;2024-01-15T08:33:32;1.40;99.90
61253;DHT22;47127;47.516;8.596;2024-01-15T08:35:57;1.50;99.90
61253;DHT22;47127;47.516;8.596;2024-01-15T08:38:23;1.60;99.90
61253;DHT22;47127;47.516;8.596;2024-01-15T08:40:49;1.40;99.90
61253;DHT22;47127;47.516;8.596;2024-01-15T08:43:15;1.40;99.90
61253;DHT22;47127;47.516;8.596;2024-01-15T08:45:40;1.40;99.90
61253;DHT22;47127;47.516;8.596;2024-01-15T08:48:06;1.40;99.90
61253;DHT22;47127;47.516;8.596;2024-01-15T08:50:32;0.80;99.90
61253;DHT22;47127;47.516;8.596;2024-01-15T08:52:58;1.40;99.90
61253;DHT22;47127;47.516;8.596;2024-01-15T08:55:24;1.30;99.90
61253;DHT22;47127;47.516;8.596;2024-01-15T08:57:50;0.40;99.90
61253;DHT22;47127;47.516;8.596;2024-01-15T09:00:17;1.30;99.90
61253;DHT22;47127;47.516;8.596;2024-01-15T09:02:43;1.20;99.90
61253;DHT22;47127;47.516;8.596;2024-01-15T09:05:09;1.30;99.90
61253;DHT22;47127;47.516;8.596;2024-01-15T09:07:35;1.30;99.90
61253;DHT22;47127;47.516;8.596;2024-01-15T09:10:00;1.30;99.90
61253;DHT22;47127;47.516;8.596;2024-01-15T09:12:27;1.30;99.90
61253;DHT22;47127;47.516;8.596;2024-01-15T09:14:52;1.40;99.90
61253;DHT22;47127;47.516;8.596;2024-01-15T09:17:22;1.40;99.90
61253;DHT22;47127;47.516;8.596;2024-01-15T09:19:49;1.40;99.90
61253;DHT22;47127;47.516;8.596;2024-01-15T09:22:15;1.50;99.90
61253;DHT22;47127;47.516;8.596;2024-01-15T09:24:44;1.50;99.90
61253;DHT22;47127;47.516;8.596;2024-01-15T09:27:09;1.50;99.90
61253;DHT22;47127;47.516;8.596;2024-01-15T09:29:35;1.50;99.90
61253;DHT22;47127;47.516;8.596;2024-01-15T09:32:05;1.50;99.90
61253;DHT22;47127;47.516;8.596;2024-01-15T09:34:32;1.60;99.90
61253;DHT22;47127;47.516;8.596;2024-01-15T09:36:57;1.60;99.90
61253;DHT22;47127;47.516;8.596;2024-01-15T09:39:23;1.70;99.90
61253;DHT22;47127;47.516;8.596;2024-01-15T09:41:49;1.80;99.90
61253;DHT22;47127;47.516;8.596;2024-01-15T09:44:15;1.80;99.90
61253;DHT22;47127;47.516;8.596;2024-01-15T09:46:41;1.80;99.90
61253;DHT22;47127;47.516;8.596;2024-01-15T09:49:08;1.80;99.90
61253;DHT22;47127;47.516;8.596;2024-01-15T09:51:35;1.90;99.90
61253;DHT22;47127;47.516;8.596;2024-01-15T09:54:05;1.80;99.90
61253;DHT22;47127;47.516;8.596;2024-01-15T09:56:31;1.90;99.90
61253;DHT22;47127;47.516;8.596;2024-01-15T09:58:57;1.80;99.90
61253;DHT22;47127;47.516;8.596;2024-01-15T10:01:23;1.80;99.90
61253;DHT22;47127;47.516;8.596;2024-01-15T10:03:50;1.80;99.90
61253;DHT22;47127;47.516;8.596;2024-01-15T10:06:16;1.90;99.90
61253;DHT22;47127;47.516;8.596;2024-01-15T10:08:49;1.90;99.90
61253;DHT22;47127;47.516;8.596;2024-01-15T10:11:15;1.90;99.90
61253;DHT22;47127;47.516;8.596;2024-01-15T10:13:44;2.00;99.90
61253;DHT22;47127;47.516;8.596;2024-01-15T10:16:10;2.00;99.90
61253;DHT22;47127;47.516;8.596;2024-01-15T10:18:36;2.00;99.90
61253;DHT22;47127;47.516;8.596;2024-01-15T10:21:03;2.00;99.90
61253;DHT22;47127;47.516;8.596;2024-01-15T10:23:29;2.10;99.90
61253;DHT22;47127;47.516;8.596;2024-01-15T10:25:57;2.20;99.90
61253;DHT22;47127;47.516;8.596;2024-01-15T10:28:26;2.10;99.90
61253;DHT22;47127;47.516;8.596;2024-01-15T10:30:57;2.10;99.90
61253;DHT22;47127;47.516;8.596;2024-01-15T10:33:25;2.10;99.90
61253;DHT22;47127;47.516;8.596;2024-01-15T10:35:57;2.00;99.90
61253;DHT22;47127;47.516;8.596;2024-01-15T10:38:25;2.00;99.90
61253;DHT22;47127;47.516;8.596;2024-01-15T10:40:51;2.00;99.90
61253;DHT22;47127;47.516;8.596;2024-01-15T10:43:17;2.00;99.90
61253;DHT22;47127;47.516;8.596;2024-01-15T10:45:45;2.10;99.90
61253;DHT22;47127;47.516;8.596;2024-01-15T10:48:12;2.10;99.90
61253;DHT22;47127;47.516;8.596;2024-01-15T10:50:38;2.20;99.90
61253;DHT22;47127;47.516;8.596;2024-01-15T10:53:04;2.30;99.90
61253;DHT22;47127;47.516;8.596;2024-01-15T10:55:35;2.40;99.90
61253;DHT22;47127;47.516;8.596;2024-01-15T10:58:01;2.60;99.90
61253;DHT22;47127;47.516;8.596;2024-01-15T11:00:29;2.60;99.90
61253;DHT22;47127;47.516;8.596;2024-01-15T11:02:54;2.60;99.90
61253;DHT22;47127;47.516;8.596;2024-01-15T11:05:21;2.60;99.90
61253;DHT22;47127;47.516;8.596;2024-01-15T11:07:48;2.60;99.90
61253;DHT22;47127;47.516;8.596;2024-01-15T11:10:43;2.60;99.90
61253;DHT22;47127;47.516;8.596;2024-01-15T11:16:06;2.60;99.90
61253;DHT22;47127;47.516;8.596;2024-01-15T11:18:35;2.70;99.90
61253;DHT22;47127;47.516;8.596;2024-01-15T11:23:58;2.60;99.90
61253;DHT22;47127;47.516;8.596;2024-01-15T11:29:04;2.70;99.90
61253;DHT22;47127;47.516;8.596;2024-01-15T11:34:09;2.80;99.90
61253;DHT22;47127;47.516;8.596;2024-01-15T11:44:23;3.10;99.90
61253;DHT22;47127;47.516;8.596;2024-01-15T11:47:05;3.10;99.90
61253;DHT22;47127;47.516;8.596;2024-01-15T11:49:39;3.20;99.90
61253;DHT22;47127;47.516;8.596;2024-01-15T11:52:11;3.20;99.90
61253;DHT22;47127;47.516;8.596;2024-01-15T11:54:38;3.20;99.90
61253;DHT22;47127;47.516;8.596;2024-01-15T11:57:10;3.20;99.90
61253;DHT22;47127;47.516;8.596;2024-01-15T11:59:39;3.30;99.90
61253;DHT22;47127;47.516;8.596;2024-01-15T12:02:06;3.40;99.90
61253;DHT22;47127;47.516;8.596;2024-01-15T12:04:33;3.50;99.90
61253;DHT22;47127;47.516;8.596;2024-01-15T12:07:01;3.50;99.90
61253;DHT22;47127;47.516;8.596;2024-01-15T12:09:27;3.50;99.90
61253;DHT22;47127;47.516;8.596;2024-01-15T12:12:01;3.50;99.90
61253;DHT22;47127;47.516;8.596;2024-01-15T12:14:31;3.60;99.90
61253;DHT22;47127;47.516;8.596;2024-01-15T12:16:57;3.60;99.90
61253;DHT22;47127;47.516;8.596;2024-01-15T12:19:23;3.60;99.90
61253;DHT22;47127;47.516;8.596;2024-01-15T12:21:52;3.60;99.90
61253;DHT22;47127;47.516;8.596;2024-01-15T12:26:45;3.20;99.90
61253;DHT22;47127;47.516;8.596;2024-01-15T12:29:11;3.30;99.90
61253;DHT22;47127;47.516;8.596;2024-01-15T12:31:37;3.50;99.90
61253;DHT22;47127;47.516;8.596;2024-01-15T12:34:03;3.40;99.90
61253;DHT22;47127;47.516;8.596;2024-01-15T12:36:31;3.30;99.90
61253;DHT22;47127;47.516;8.596;2024-01-15T12:39:00;3.30;99.90
61253;DHT22;47127;47.516;8.596;2024-01-15T12:41:30;3.30;99.90
61253;DHT22;47127;47.516;8.596;2024-01-15T12:43:56;3.20;99.90
61253;DHT22;47127;47.516;8.596;2024-01-15T12:46:22;3.20;99.90
61253;DHT22;47127;47.516;8.596;2024-01-15T12:48:48;3.20;99.90
61253;DHT22;47127;47.516;8.596;2024-01-15T12:51:15;3.20;99.90
61253;DHT22;47127;47.516;8.596;2024-01-15T12:53:42;3.20;99.90
61253;DHT22;47127;47.516;8.596;2024-01-15T12:56:08;3.30;99.90
61253;DHT22;47127;47.516;8.596;2024-01-15T12:58:33;3.30;99.90
61253;DHT22;47127;47.516;8.596;2024-01-15T13:00:59;3.30;99.90
61253;DHT22;47127;47.516;8.596;2024-01-15T13:03:25;3.30;99.90
61253;DHT22;47127;47.516;8.596;2024-01-15T13:05:51;3.30;99.90
61253;DHT22;47127;47.516;8.596;2024-01-15T13:08:17;3.40;99.90
61253;DHT22;47127;47.516;8.596;2024-01-15T13:10:43;3.40;99.90
61253;DHT22;47127;47.516;8.596;2024-01-15T13:13:09;3.40;99.90
61253;DHT22;47127;47.516;8.596;2024-01-15T13:15:35;3.60;99.90
61253;DHT22;47127;47.516;8.596;2024-01-15T13:18:01;3.50;99.90
61253;DHT22;47127;47.516;8.596;2024-01-15T13:20:26;3.50;99.90
61253;DHT22;47127;47.516;8.596;2024-01-15T13:22:52;3.60;99.90
61253;DHT22;47127;47.516;8.596;2024-01-15T13:25:18;3.60;99.90
61253;DHT22;47127;47.516;8.596;2024-01-15T13:27:48;3.60;99.90
61253;DHT22;47127;47.516;8.596;2024-01-15T13:30:15;3.70;99.90
61253;DHT22;47127;47.516;8.596;2024-01-15T13:32:41;3.60;99.90
61253;DHT22;47127;47.516;8.596;2024-01-15T13:35:07;3.60;99.90
61253;DHT22;47127;47.516;8.596;2024-01-15T13:37:35;2.50;99.90
61253;DHT22;47127;47.516;8.596;2024-01-15T13:40:02;3.40;99.90
61253;DHT22;47127;47.516;8.596;2024-01-15T13:42:29;3.40;99.90
61253;DHT22;47127;47.516;8.596;2024-01-15T13:44:54;3.20;99.90
61253;DHT22;47127;47.516;8.596;2024-01-15T13:47:20;3.10;99.90
61253;DHT22;47127;47.516;8.596;2024-01-15T13:49:49;3.10;99.90
61253;DHT22;47127;47.516;8.596;2024-01-15T13:52:14;3.00;99.90
61253;DHT22;47127;47.516;8.596;2024-01-15T13:54:40;2.90;99.90
61253;DHT22;47127;47.516;8.596;2024-01-15T13:57:06;3.00;99.90
61253;DHT22;47127;47.516;8.596;2024-01-15T13:59:32;3.00;99.90
61253;DHT22;47127;47.516;8.596;2024-01-15T14:01:58;2.80;99.90
61253;DHT22;47127;47.516;8.596;2024-01-15T14:04:30;2.90;99.90
61253;DHT22;47127;47.516;8.596;2024-01-15T14:06:55;2.90;99.90
61253;DHT22;47127;47.516;8.596;2024-01-15T14:09:22;3.00;99.90
61253;DHT22;47127;47.516;8.596;2024-01-15T14:11:49;2.90;99.90
61253;DHT22;47127;47.516;8.596;2024-01-15T14:14:14;2.80;99.90
61253;DHT22;47127;47.516;8.596;2024-01-15T14:16:40;2.90;99.90
61253;DHT22;47127;47.516;8.596;2024-01-15T14:19:06;3.00;99.90
61253;DHT22;47127;47.516;8.596;2024-01-15T14:21:35;2.90;99.90
61253;DHT22;47127;47.516;8.596;2024-01-15T14:24:00;2.90;99.90
61253;DHT22;47127;47.516;8.596;2024-01-15T14:26:26;3.00;99.90
61253;DHT22;47127;47.516;8.596;2024-01-15T14:28:52;2.90;99.90
61253;DHT22;47127;47.516;8.596;2024-01-15T14:31:18;2.90;99.90
61253;DHT22;47127;47.516;8.596;2024-01-15T14:33:45;2.80;99.90
61253;DHT22;47127;47.516;8.596;2024-01-15T14:36:11;2.80;99.90
61253;DHT22;47127;47.516;8.596;2024-01-15T14:38:36;2.90;99.90
61253;DHT22;47127;47.516;8.596;2024-01-15T14:41:02;2.70;99.90
61253;DHT22;47127;47.516;8.596;2024-01-15T14:43:27;2.70;99.90
61253;DHT22;47127;47.516;8.596;2024-01-15T14:45:53;2.70;99.90
61253;DHT22;47127;47.516;8.596;2024-01-15T14:48:18;2.70;99.90
61253;DHT22;47127;47.516;8.596;2024-01-15T14:50:44;2.70;99.90
61253;DHT22;47127;47.516;8.596;2024-01-15T14:53:10;2.60;99.90
61253;DHT22;47127;47.516;8.596;2024-01-15T14:55:36;2.70;99.90
61253;DHT22;47127;47.516;8.596;2024-01-15T14:58:01;2.70;99.90
61253;DHT22;47127;47.516;8.596;2024-01-15T15:00:28;2.60;99.90
61253;DHT22;47127;47.516;8.596;2024-01-15T15:02:54;2.50;99.90
61253;DHT22;47127;47.516;8.596;2024-01-15T15:05:20;2.50;99.90
61253;DHT22;47127;47.516;8.596;2024-01-15T15:07:46;2.50;99.90
61253;DHT22;47127;47.516;8.596;2024-01-15T15:10:11;2.50;99.90
61253;DHT22;47127;47.516;8.596;2024-01-15T15:12:37;2.40;99.90
61253;DHT22;47127;47.516;8.596;2024-01-15T15:15:03;2.50;99.90
61253;DHT22;47127;47.516;8.596;2024-01-15T15:17:29;2.50;99.90
61253;DHT22;47127;47.516;8.596;2024-01-15T15:19:54;2.60;99.90
61253;DHT22;47127;47.516;8.596;2024-01-15T15:22:21;2.50;99.90
61253;DHT22;47127;47.516;8.596;2024-01-15T15:24:47;2.50;99.90
61253;DHT22;47127;47.516;8.596;2024-01-15T15:27:12;2.50;99.90
61253;DHT22;47127;47.516;8.596;2024-01-15T15:29:38;2.60;99.90
61253;DHT22;47127;47.516;8.596;2024-01-15T15:32:03;2.70;99.90
61253;DHT22;47127;47.516;8.596;2024-01-15T15:34:29;2.60;99.90
61253;DHT22;47127;47.516;8.596;2024-01-15T15:36:55;2.50;99.90
61253;DHT22;47127;47.516;8.596;2024-01-15T15:39:20;2.40;99.90
61253;DHT22;47127;47.516;8.596;2024-01-15T15:41:46;2.30;99.90
61253;DHT22;47127;47.516;8.596;2024-01-15T15:44:12;2.40;99.90
61253;DHT22;47127;47.516;8.596;2024-01-15T15:46:42;2.40;99.90
61253;DHT22;47127;47.516;8.596;2024-01-15T15:49:08;2.50;99.90
61253;DHT22;47127;47.516;8.596;2024-01-15T15:51:34;2.40;99.90
61253;DHT22;47127;47.516;8.596;2024-01-15T15:54:01;2.20;99.90
61253;DHT22;47127;47.516;8.596;2024-01-15T15:56:28;2.20;99.90
61253;DHT22;47127;47.516;8.596;2024-01-15T15:58:54;2.20;99.90
61253;DHT22;47127;47.516;8.596;2024-01-15T16:01:19;2.30;99.90